sensor_id;sensor_type;location;lat;lon;timestamp;temperature;humidity
33955;DHT22;20233;50.804;7.126;2023-04-08T00:00:32;9.40;99.90
33955;DHT22;20233;50.804;7.126;2023-04-08T00:02:57;9.40;99.90
33955;DHT22;20233;50.804;7.126;2023-04-08T00:05:23;9.30;99.90
33955;DHT22;20233;50.804;7.126;2023-04-08T00:07:49;9.30;99.90
33955;DHT22;20233;50.804;7.126;2023-04-08T00:10:14;9.20;99.90
33955;DHT22;20233;50.804;7.126;2023-04-08T00:12:40;9.40;99.90
33955;DHT22;20233;50.804;7.126;2023-04-08T00:15:06;9.20;99.90
33955;DHT22;20233;50.804;7.126;2023-04-08T00:17:31;9.40;99.90
33955;DHT22;20233;50.804;7.126;2023-04-08T00:19:57;9.50;99.90
33955;DHT22;20233;50.804;7.126;2023-04-08T00:22:23;9.60;99.90
33955;DHT22;20233;50.804;7.126;2023-04-08T00:24:48;9.60;99.90
33955;DHT22;20233;50.804;7.126;2023-04-08T00:27:14;9.80;99.90
33955;DHT22;20233;50.804;7.126;2023-04-08T00:29:39;9.90;99.90
33955;DHT22;20233;50.804;7.126;2023-04-08T00:32:05;9.90;99.90
33955;DHT22;20233;50.804;7.126;2023-04-08T00:34:31;9.90;99.90
33955;DHT22;20233;50.804;7.126;2023-04-08T00:36:58;9.90;99.90
33955;DHT22;20233;50.804;7.126;2023-04-08T00:39:23;10.00;99.90
33955;DHT22;20233;50.804;7.126;2023-04-08T00:41:49;10.00;99.90
33955;DHT22;20233;50.804;7.126;2023-04-08T00:44:15;9.90;99.90
33955;DHT22;20233;50.804;7.126;2023-04-08T00:46:40;9.90;99.90
33955;DHT22;20233;50.804;7.126;2023-04-08T00:49:06;9.90;99.90
33955;DHT22;20233;50.804;7.126;2023-04-08T00:51:32;10.00;99.90
33955;DHT22;20233;50.804;7.126;2023-04-08T00:54:01;9.70;99.90
33955;DHT22;20233;50.804;7.126;2023-04-08T00:56:26;9.80;99.90
33955;DHT22;20233;50.804;7.126;2023-04-08T00:58:52;9.70;99.90
33955;DHT22;20233;50.804;7.126;2023-04-08T01:04:36;9.80;99.90
33955;DHT22;20233;50.804;7.126;2023-04-08T01:07:14;9.70;99.90
33955;DHT22;20233;50.804;7.126;2023-04-08T01:09:46;9.40;99.90
33955;DHT22;20233;50.804;7.126;2023-04-08T01:12:19;9.50;99.90
33955;DHT22;20233;50.804;7.126;2023-04-08T01:14:46;9.50;99.90
33955;DHT22;20233;50.804;7.126;2023-04-08T01:17:14;9.30;99.90
33955;DHT22;20233;50.804;7.126;2023-04-08T01:19:42;9.30;99.90
33955;DHT22;20233;50.804;7.126;2023-04-08T01:22:22;9.20;99.90
33955;DHT22;20233;50.804;7.126;2023-04-08T01:24:58;9.30;99.90
33955;DHT22;20233;50.804;7.126;2023-04-08T01:27:27;9.40;99.90
33955;DHT22;20233;50.804;7.126;2023-04-08T01:29:55;9.40;99.90
33955;DHT22;20233;50.804;7.126;2023-04-08T01:32:23;9.50;99.90
33955;DHT22;20233;50.804;7.126;2023-04-08T01:34:49;9.30;99.90
33955;DHT22;20233;50.804;7.126;2023-04-08T01:37:16;9.20;99.90
33955;DHT22;20233;50.804;7.126;2023-04-08T01:39:42;9.10;99.90
33955;DHT22;20233;50.804;7.126;2023-04-08T01:42:09;9.10;99.90
33955;DHT22;20233;50.804;7.126;2023-04-08T01:44:35;9.30;99.90
33955;DHT22;20233;50.804;7.126;2023-04-08T01:47:02;9.10;99.90
33955;DHT22;20233;50.804;7.126;2023-04-08T01:49:28;9.10;99.90
33955;DHT22;20233;50.804;7.126;2023-04-08T01:51:56;9.30;99.90
33955;DHT22;20233;50.804;7.126;2023-04-08T01:54:22;9.20;99.90
33955;DHT22;20233;50.804;7.126;2023-04-08T01:56:50;8.90;99.90
33955;DHT22;20233;50.804;7.126;2023-04-08T01:59:16;8.90;99.90
33955;DHT22;20233;50.804;7.126;2023-04-08T02:01:46;8.90;99.90
33955;DHT22;20233;50.804;7.126;2023-04-08T02:04:12;8.80;99.90
33955;DHT22;20233;50.804;7.126;2023-04-08T02:06:38;8.90;99.90
33955;DHT22;20233;50.804;7.126;2023-04-08T02:09:03;8.70;99.90
33955;DHT22;20233;50.804;7.126;2023-04-08T02:11:30;8.90;99.90
33955;DHT22;20233;50.804;7.126;2023-04-08T02:13:56;9.20;99.90
33955;DHT22;20233;50.804;7.126;2023-04-08T02:19:23;9.20;99.90
33955;DHT22;20233;50.804;7.126;2023-04-08T02:21:56;9.40;99.90
33955;DHT22;20233;50.804;7.126;2023-04-08T02:24:25;9.40;99.90
33955;DHT22;20233;50.804;7.126;2023-04-08T02:26:52;9.30;99.90
33955;DHT22;20233;50.804;7.126;2023-04-08T02:29:18;9.10;99.90
33955;DHT22;20233;50.804;7.126;2023-04-08T02:31:44;9.10;99.90
33955;DHT22;20233;50.804;7.126;2023-04-08T02:34:12;9.30;99.90
33955;DHT22;20233;50.804;7.126;2023-04-08T02:36:38;9.40;99.90
33955;DHT22;20233;50.804;7.126;2023-04-08T02:39:05;9.40;99.90
33955;DHT22;20233;50.804;7.126;2023-04-08T02:41:32;9.50;99.90
33955;DHT22;20233;50.804;7.126;2023-04-08T02:43:57;9.50;99.90
33955;DHT22;20233;50.804;7.126;2023-04-08T02:46:23;9.60;99.90
33955;DHT22;20233;50.804;7.126;2023-04-08T02:48:49;9.60;99.90
33955;DHT22;20233;50.804;7.126;2023-04-08T02:51:15;9.60;99.90
33955;DHT22;20233;50.804;7.126;2023-04-08T02:53:40;9.50;99.90
33955;DHT22;20233;50.804;7.126;2023-04-08T02:56:09;9.60;99.90
33955;DHT22;20233;50.804;7.126;2023-04-08T02:58:35;9.70;99.90
33955;DHT22;20233;50.804;7.126;2023-04-08T03:01:01;9.60;99.90
33955;DHT22;20233;50.804;7.126;2023-04-08T03:03:26;9.50;99.90
33955;DHT22;20233;50.804;7.126;2023-04-08T03:05:54;9.60;99.90
33955;DHT22;20233;50.804;7.126;2023-04-08T03:08:20;9.60;99.90
33955;DHT22;20233;50.804;7.126;2023-04-08T03:10:46;9.60;99.90
33955;DHT22;20233;50.804;7.126;2023-04-08T03:13:13;9.60;99.90
33955;DHT22;20233;50.804;7.126;2023-04-08T03:15:39;9.60;99.90
33955;DHT22;20233;50.804;7.126;2023-04-08T03:18:05;9.60;99.90
33955;DHT22;20233;50.804;7.126;2023-04-08T03:20:30;9.60;99.90
33955;DHT22;20233;50.804;7.126;2023-04-08T03:22:56;9.60;99.90
33955;DHT22;20233;50.804;7.126;2023-04-08T03:25:22;9.70;99.90
33955;DHT22;20233;50.804;7.126;2023-04-08T03:27:47;9.70;99.90
33955;DHT22;20233;50.804;7.126;2023-04-08T03:30:13;9.60;99.90
33955;DHT22;20233;50.804;7.126;2023-04-08T03:32:38;9.60;99.90
33955;DHT22;20233;50.804;7.126;2023-04-08T03:35:05;9.60;99.90
33955;DHT22;20233;50.804;7.126;2023-04-08T03:37:30;9.70;99.90
33955;DHT22;20233;50.804;7.126;2023-04-08T03:39:56;9.70;99.90
33955;DHT22;20233;50.804;7.126;2023-04-08T03:42:22;9.60;99.90
33955;DHT22;20233;50.804;7.126;2023-04-08T03:44:48;9.50;99.90
33955;DHT22;20233;50.804;7.126;2023-04-08T03:47:13;9.40;99.90
33955;DHT22;20233;50.804;7.126;2023-04-08T03:49:39;9.50;99.90
33955;DHT22;20233;50.804;7.126;2023-04-08T03:52:04;9.50;99.90
33955;DHT22;20233;50.804;7.126;2023-04-08T03:54:30;9.60;99.90
33955;DHT22;20233;50.804;7.126;2023-04-08T03:56:55;9.50;99.90
33955;DHT22;20233;50.804;7.126;2023-04-08T03:59:21;9.50;99.90
33955;DHT22;20233;50.804;7.126;2023-04-08T04:01:47;9.40;99.90
33955;DHT22;20233;50.804;7.126;2023-04-08T04:04:13;9.30;99.90
33955;DHT22;20233;50.804;7.126;2023-04-08T04:06:39;9.50;99.90
33955;DHT22;20233;50.804;7.126;2023-04-08T04:09:04;9.50;99.90
33955;DHT22;20233;50.804;7.126;2023-04-08T04:11:30;9.40;99.90
33955;DHT22;20233;50.804;7.126;2023-04-08T04:13:55;9.30;99.90
33955;DHT22;20233;50.804;7.126;2023-04-08T04:16:21;9.40;99.90
33955;DHT22;20233;50.804;7.126;2023-04-08T04:18:47;9.50;99.90
33955;DHT22;20233;50.804;7.126;2023-04-08T04:21:12;9.60;99.90
33955;DHT22;20233;50.804;7.126;2023-04-08T04:23:38;9.50;99.90
33955;DHT22;20233;50.804;7.126;2023-04-08T04:26:10;9.60;99.90
33955;DHT22;20233;50.804;7.126;2023-04-08T04:28:36;9.50;99.90
33955;DHT22;20233;50.804;7.126;2023-04-08T04:31:01;9.50;99.90
33955;DHT22;20233;50.804;7.126;2023-04-08T04:33:27;9.50;99.90
33955;DHT22;20233;50.804;7.126;2023-04-08T04:35:52;9.50;99.90
33955;DHT22;20233;50.804;7.126;2023-04-08T04:38:18;9.30;99.90
33955;DHT22;20233;50.804;7.126;2023-04-08T04:40:43;9.10;99.90
33955;DHT22;20233;50.804;7.126;2023-04-08T04:43:09;9.00;99.90
33955;DHT22;20233;50.804;7.126;2023-04-08T04:45:35;9.20;99.90
33955;DHT22;20233;50.804;7.126;2023-04-08T04:48:01;9.10;99.90
33955;DHT22;20233;50.804;7.126;2023-04-08T04:50:27;9.10;99.90
33955;DHT22;20233;50.804;7.126;2023-04-08T04:52:53;9.10;99.90
33955;DHT22;20233;50.804;7.126;2023-04-08T04:55:18;9.30;99.90
33955;DHT22;20233;50.804;7.126;2023-04-08T04:57:44;9.30;99.90
33955;DHT22;20233;50.804;7.126;2023-04-08T05:00:10;9.30;99.90
33955;DHT22;20233;50.804;7.126;2023-04-08T05:02:36;9.20;99.90
33955;DHT22;20233;50.804;7.126;2023-04-08T05:05:02;9.00;99.90
33955;DHT22;20233;50.804;7.126;2023-04-08T05:07:27;9.30;99.90
33955;DHT22;20233;50.804;7.126;2023-04-08T05:09:53;9.30;99.90
33955;DHT22;20233;50.804;7.126;2023-04-08T05:12:18;9.40;99.90
33955;DHT22;20233;50.804;7.126;2023-04-08T05:14:47;9.50;99.90
33955;DHT22;20233;50.804;7.126;2023-04-08T05:17:12;9.60;99.90
33955;DHT22;20233;50.804;7.126;2023-04-08T05:19:38;9.60;99.90
33955;DHT22;20233;50.804;7.126;2023-04-08T05:22:03;9.50;99.90
33955;DHT22;20233;50.804;7.126;2023-04-08T05:24:29;9.40;99.90
33955;DHT22;20233;50.804;7.126;2023-04-08T05:26:55;9.60;99.90
33955;DHT22;20233;50.804;7.126;2023-04-08T05:29:22;9.60;99.90
33955;DHT22;20233;50.804;7.126;2023-04-08T05:31:47;9.50;99.90
33955;DHT22;20233;50.804;7.126;2023-04-08T05:34:13;9.40;99.90
33955;DHT22;20233;50.804;7.126;2023-04-08T05:36:39;9.50;99.90
33955;DHT22;20233;50.804;7.126;2023-04-08T05:39:05;9.60;99.90
33955;DHT22;20233;50.804;7.126;2023-04-08T05:41:31;9.60;99.90
33955;DHT22;20233;50.804;7.126;2023-04-08T05:43:56;9.70;99.90
33955;DHT22;20233;50.804;7.126;2023-04-08T05:46:22;9.50;99.90
33955;DHT22;20233;50.804;7.126;2023-04-08T05:48:47;9.40;99.90
33955;DHT22;20233;50.804;7.126;2023-04-08T05:51:14;9.50;99.90
33955;DHT22;20233;50.804;7.126;2023-04-08T05:53:39;9.30;99.90
33955;DHT22;20233;50.804;7.126;2023-04-08T05:56:05;9.20;99.90
33955;DHT22;20233;50.804;7.126;2023-04-08T05:58:31;9.10;99.90
33955;DHT22;20233;50.804;7.126;2023-04-08T06:00:56;9.00;99.90
33955;DHT22;20233;50.804;7.126;2023-04-08T06:03:22;9.20;99.90
33955;DHT22;20233;50.804;7.126;2023-04-08T06:05:47;8.90;99.90
33955;DHT22;20233;50.804;7.126;2023-04-08T06:08:13;8.90;99.90
33955;DHT22;20233;50.804;7.126;2023-04-08T06:10:38;9.00;99.90
33955;DHT22;20233;50.804;7.126;2023-04-08T06:13:04;9.10;99.90
33955;DHT22;20233;50.804;7.126;2023-04-08T06:15:30;9.10;99.90
33955;DHT22;20233;50.804;7.126;2023-04-08T06:17:57;9.20;99.90
33955;DHT22;20233;50.804;7.126;2023-04-08T06:20:22;9.00;99.90
33955;DHT22;20233;50.804;7.126;2023-04-08T06:22:48;8.90;99.90
33955;DHT22;20233;50.804;7.126;2023-04-08T06:25:13;9.10;99.90
33955;DHT22;20233;50.804;7.126;2023-04-08T06:27:39;8.90;99.90
33955;DHT22;20233;50.804;7.126;2023-04-08T06:30:05;8.90;99.90
33955;DHT22;20233;50.804;7.126;2023-04-08T06:32:31;8.90;99.90
33955;DHT22;20233;50.804;7.126;2023-04-08T06:34:56;8.90;99.90
33955;DHT22;20233;50.804;7.126;2023-04-08T06:37:22;9.10;99.90
33955;DHT22;20233;50.804;7.126;2023-04-08T06:39:48;9.20;99.90
33955;DHT22;20233;50.804;7.126;2023-04-08T06:42:14;9.30;99.90
33955;DHT22;20233;50.804;7.126;2023-04-08T06:44:39;9.20;99.90
33955;DHT22;20233;50.804;7.126;2023-04-08T06:47:05;9.30;99.90
33955;DHT22;20233;50.804;7.126;2023-04-08T06:49:31;9.30;99.90
33955;DHT22;20233;50.804;7.126;2023-04-08T06:51:56;9.10;99.90
33955;DHT22;20233;50.804;7.126;2023-04-08T06:54:22;9.30;99.90
33955;DHT22;20233;50.804;7.126;2023-04-08T06:56:48;9.40;99.90
33955;DHT22;20233;50.804;7.126;2023-04-08T06:59:13;9.30;99.90
33955;DHT22;20233;50.804;7.126;2023-04-08T07:01:39;9.10;99.90
33955;DHT22;20233;50.804;7.126;2023-04-08T07:04:05;9.00;99.90
33955;DHT22;20233;50.804;7.126;2023-04-08T07:06:31;9.00;99.90
33955;DHT22;20233;50.804;7.126;2023-04-08T07:08:57;9.00;99.90
33955;DHT22;20233;50.804;7.126;2023-04-08T07:11:23;9.00;99.90
33955;DHT22;20233;50.804;7.126;2023-04-08T07:13:49;9.00;99.90
33955;DHT22;20233;50.804;7.126;2023-04-08T07:16:15;9.00;99.90
33955;DHT22;20233;50.804;7.126;2023-04-08T07:18:40;9.00;99.90
33955;DHT22;20233;50.804;7.126;2023-04-08T07:21:08;9.10;99.90
33955;DHT22;20233;50.804;7.126;2023-04-08T07:23:33;9.20;99.90
33955;DHT22;20233;50.804;7.126;2023-04-08T07:26:02;9.30;99.90
33955;DHT22;20233;50.804;7.126;2023-04-08T07:28:31;9.20;99.90
33955;DHT22;20233;50.804;7.126;2023-04-08T07:31:08;9.30;99.90
33955;DHT22;20233;50.804;7.126;2023-04-08T07:33:33;9.40;99.90
33955;DHT22;20233;50.804;7.126;2023-04-08T07:35:59;9.40;99.90
33955;DHT22;20233;50.804;7.126;2023-04-08T07:38:25;9.40;99.90
33955;DHT22;20233;50.804;7.126;2023-04-08T07:40:52;9.50;99.90
33955;DHT22;20233;50.804;7.126;2023-04-08T07:43:17;9.40;99.90
33955;DHT22;20233;50.804;7.126;2023-04-08T07:45:43;9.30;99.90
33955;DHT22;20233;50.804;7.126;2023-04-08T07:48:08;9.40;99.90
33955;DHT22;20233;50.804;7.126;2023-04-08T07:50:35;9.30;99.90
33955;DHT22;20233;50.804;7.126;2023-04-08T07:53:02;9.30;99.90
33955;DHT22;20233;50.804;7.126;2023-04-08T07:55:31;9.50;99.90
33955;DHT22;20233;50.804;7.126;2023-04-08T07:57:57;9.70;99.90
33955;DHT22;20233;50.804;7.126;2023-04-08T08:00:23;9.60;99.90
33955;DHT22;20233;50.804;7.126;2023-04-08T08:02:49;9.60;99.90
33955;DHT22;20233;50.804;7.126;2023-04-08T08:05:15;9.60;99.90
33955;DHT22;20233;50.804;7.126;2023-04-08T08:07:40;9.80;99.90
33955;DHT22;20233;50.804;7.126;2023-04-08T08:10:07;9.90;99.90
33955;DHT22;20233;50.804;7.126;2023-04-08T08:12:32;10.00;99.90
33955;DHT22;20233;50.804;7.126;2023-04-08T08:14:58;10.00;99.90
33955;DHT22;20233;50.804;7.126;2023-04-08T08:17:24;9.90;99.90
33955;DHT22;20233;50.804;7.126;2023-04-08T08:19:50;9.80;99.90
33955;DHT22;20233;50.804;7.126;2023-04-08T08:22:16;9.80;99.90
33955;DHT22;20233;50.804;7.126;2023-04-08T08:24:41;10.00;99.90
33955;DHT22;20233;50.804;7.126;2023-04-08T08:27:10;10.10;99.90
33955;DHT22;20233;50.804;7.126;2023-04-08T08:29:36;9.90;99.90
33955;DHT22;20233;50.804;7.126;2023-04-08T08:32:01;10.10;99.90
33955;DHT22;20233;50.804;7.126;2023-04-08T08:34:30;10.20;99.90
33955;DHT22;20233;50.804;7.126;2023-04-08T08:36:56;10.20;99.90
33955;DHT22;20233;50.804;7.126;2023-04-08T08:39:21;10.40;99.90
33955;DHT22;20233;50.804;7.126;2023-04-08T08:41:47;9.90;99.90
33955;DHT22;20233;50.804;7.126;2023-04-08T08:44:13;10.10;99.90
33955;DHT22;20233;50.804;7.126;2023-04-08T08:46:46;10.00;99.90
33955;DHT22;20233;50.804;7.126;2023-04-08T08:49:12;10.10;99.90
33955;DHT22;20233;50.804;7.126;2023-04-08T08:51:39;10.20;99.90
33955;DHT22;20233;50.804;7.126;2023-04-08T08:54:06;10.50;99.90
33955;DHT22;20233;50.804;7.126;2023-04-08T08:56:32;10.50;99.90
33955;DHT22;20233;50.804;7.126;2023-04-08T08:58:58;10.50;99.90
33955;DHT22;20233;50.804;7.126;2023-04-08T09:01:35;10.70;99.90
33955;DHT22;20233;50.804;7.126;2023-04-08T09:06:37;10.30;99.90
33955;DHT22;20233;50.804;7.126;2023-04-08T09:09:03;10.50;99.90
33955;DHT22;20233;50.804;7.126;2023-04-08T09:11:39;10.70;99.90
33955;DHT22;20233;50.804;7.126;2023-04-08T09:14:19;10.80;99.90
33955;DHT22;20233;50.804;7.126;2023-04-08T09:16:45;11.00;99.90
33955;DHT22;20233;50.804;7.126;2023-04-08T09:19:11;11.20;99.90
33955;DHT22;20233;50.804;7.126;2023-04-08T09:21:37;11.40;99.90
33955;DHT22;20233;50.804;7.126;2023-04-08T09:24:05;11.40;99.90
33955;DHT22;20233;50.804;7.126;2023-04-08T09:26:33;10.80;99.90
33955;DHT22;20233;50.804;7.126;2023-04-08T09:29:05;10.70;99.90
33955;DHT22;20233;50.804;7.126;2023-04-08T09:31:36;10.80;99.90
33955;DHT22;20233;50.804;7.126;2023-04-08T09:34:16;10.60;99.90
33955;DHT22;20233;50.804;7.126;2023-04-08T09:36:44;10.60;99.90
33955;DHT22;20233;50.804;7.126;2023-04-08T09:39:10;10.50;99.90
33955;DHT22;20233;50.804;7.126;2023-04-08T09:41:37;10.50;99.90
33955;DHT22;20233;50.804;7.126;2023-04-08T09:44:05;10.70;99.90
33955;DHT22;20233;50.804;7.126;2023-04-08T09:49:33;10.50;99.90
33955;DHT22;20233;50.804;7.126;2023-04-08T09:52:19;10.50;99.90
33955;DHT22;20233;50.804;7.126;2023-04-08T09:55:00;10.50;99.90
33955;DHT22;20233;50.804;7.126;2023-04-08T09:57:43;10.80;99.90
33955;DHT22;20233;50.804;7.126;2023-04-08T10:00:15;10.70;99.90
33955;DHT22;20233;50.804;7.126;2023-04-08T10:05:30;11.00;99.90
33955;DHT22;20233;50.804;7.126;2023-04-08T10:07:56;11.00;99.90
33955;DHT22;20233;50.804;7.126;2023-04-08T10:10:24;10.50;99.90
33955;DHT22;20233;50.804;7.126;2023-04-08T10:12:50;10.70;99.90
33955;DHT22;20233;50.804;7.126;2023-04-08T10:15:25;10.60;99.90
33955;DHT22;20233;50.804;7.126;2023-04-08T10:17:53;10.60;99.90
33955;DHT22;20233;50.804;7.126;2023-04-08T10:23:14;10.70;99.90
33955;DHT22;20233;50.804;7.126;2023-04-08T10:25:41;10.80;99.90
33955;DHT22;20233;50.804;7.126;2023-04-08T10:30:49;10.70;99.90
33955;DHT22;20233;50.804;7.126;2023-04-08T10:33:24;10.80;99.90
33955;DHT22;20233;50.804;7.126;2023-04-08T10:38:41;10.80;99.90
33955;DHT22;20233;50.804;7.126;2023-04-08T10:41:09;10.90;99.90
33955;DHT22;20233;50.804;7.126;2023-04-08T10:43:37;11.10;99.90
33955;DHT22;20233;50.804;7.126;2023-04-08T10:46:03;11.00;99.90
33955;DHT22;20233;50.804;7.126;2023-04-08T10:48:29;10.90;99.90
33955;DHT22;20233;50.804;7.126;2023-04-08T10:53:32;11.10;99.90
33955;DHT22;20233;50.804;7.126;2023-04-08T10:56:11;11.30;99.90
33955;DHT22;20233;50.804;7.126;2023-04-08T10:58:53;11.20;99.90
33955;DHT22;20233;50.804;7.126;2023-04-08T11:01:21;11.20;99.90
33955;DHT22;20233;50.804;7.126;2023-04-08T11:03:47;11.30;99.90
33955;DHT22;20233;50.804;7.126;2023-04-08T11:06:13;11.10;99.90
33955;DHT22;20233;50.804;7.126;2023-04-08T11:08:40;11.10;99.90
33955;DHT22;20233;50.804;7.126;2023-04-08T11:11:06;11.20;99.90
33955;DHT22;20233;50.804;7.126;2023-04-08T11:13:43;11.10;99.90
33955;DHT22;20233;50.804;7.126;2023-04-08T11:16:09;11.20;99.90
33955;DHT22;20233;50.804;7.126;2023-04-08T11:18:40;11.40;99.90
33955;DHT22;20233;50.804;7.126;2023-04-08T11:21:12;11.40;99.90
33955;DHT22;20233;50.804;7.126;2023-04-08T11:23:37;11.50;99.90
33955;DHT22;20233;50.804;7.126;2023-04-08T11:26:03;11.50;99.90
33955;DHT22;20233;50.804;7.126;2023-04-08T11:28:29;11.60;99.90
33955;DHT22;20233;50.804;7.126;2023-04-08T11:30:56;11.60;99.90
33955;DHT22;20233;50.804;7.126;2023-04-08T11:33:24;11.40;99.90
33955;DHT22;20233;50.804;7.126;2023-04-08T11:35:50;11.60;99.90
33955;DHT22;20233;50.804;7.126;2023-04-08T11:38:16;11.60;99.90
33955;DHT22;20233;50.804;7.126;2023-04-08T11:40:56;11.50;99.90
33955;DHT22;20233;50.804;7.126;2023-04-08T11:43:25;11.30;99.90
33955;DHT22;20233;50.804;7.126;2023-04-08T11:45:51;11.50;99.90
33955;DHT22;20233;50.804;7.126;2023-04-08T11:48:17;11.40;99.90
33955;DHT22;20233;50.804;7.126;2023-04-08T11:50:43;11.50;99.90
33955;DHT22;20233;50.804;7.126;2023-04-08T11:53:19;11.60;99.90
33955;DHT22;20233;50.804;7.126;2023-04-08T11:55:46;11.60;99.90
33955;DHT22;20233;50.804;7.126;2023-04-08T11:58:12;11.60;99.90
33955;DHT22;20233;50.804;7.126;2023-04-08T12:00:38;11.50;99.90
33955;DHT22;20233;50.804;7.126;2023-04-08T12:03:04;11.50;99.90
33955;DHT22;20233;50.804;7.126;2023-04-08T12:05:30;11.40;99.90
33955;DHT22;20233;50.804;7.126;2023-04-08T12:07:56;11.50;99.90
33955;DHT22;20233;50.804;7.126;2023-04-08T12:10:22;11.40;99.90
33955;DHT22;20233;50.804;7.126;2023-04-08T12:12:49;11.40;99.90
33955;DHT22;20233;50.804;7.126;2023-04-08T12:15:15;11.40;99.90
33955;DHT22;20233;50.804;7.126;2023-04-08T12:17:42;11.40;99.90
33955;DHT22;20233;50.804;7.126;2023-04-08T12:20:10;11.40;99.90
33955;DHT22;20233;50.804;7.126;2023-04-08T12:22:36;11.50;99.90
33955;DHT22;20233;50.804;7.126;2023-04-08T12:25:02;11.60;99.90
33955;DHT22;20233;50.804;7.126;2023-04-08T12:27:29;11.60;99.90
33955;DHT22;20233;50.804;7.126;2023-04-08T12:29:55;11.60;99.90
33955;DHT22;20233;50.804;7.126;2023-04-08T12:32:20;11.60;99.90
33955;DHT22;20233;50.804;7.126;2023-04-08T12:34:46;11.60;99.90
33955;DHT22;20233;50.804;7.126;2023-04-08T12:37:12;11.60;99.90
33955;DHT22;20233;50.804;7.126;2023-04-08T12:39:38;11.60;99.90
33955;DHT22;20233;50.804;7.126;2023-04-08T12:42:03;11.80;99.90
33955;DHT22;20233;50.804;7.126;2023-04-08T12:44:29;11.70;99.90
33955;DHT22;20233;50.804;7.126;2023-04-08T12:46:55;11.60;99.90
33955;DHT22;20233;50.804;7.126;2023-04-08T12:49:23;11.60;99.90
33955;DHT22;20233;50.804;7.126;2023-04-08T12:51:48;11.70;99.90
33955;DHT22;20233;50.804;7.126;2023-04-08T12:54:14;11.70;99.90
33955;DHT22;20233;50.804;7.126;2023-04-08T12:56:41;12.00;99.90
33955;DHT22;20233;50.804;7.126;2023-04-08T12:59:07;12.00;99.90
33955;DHT22;20233;50.804;7.126;2023-04-08T13:01:33;12.00;99.90
33955;DHT22;20233;50.804;7.126;2023-04-08T13:03:59;12.10;99.90
33955;DHT22;20233;50.804;7.126;2023-04-08T13:06:25;12.00;99.90
33955;DHT22;20233;50.804;7.126;2023-04-08T13:08:51;12.10;99.90
33955;DHT22;20233;50.804;7.126;2023-04-08T13:11:16;12.20;99.90
33955;DHT22;20233;50.804;7.126;2023-04-08T13:13:42;12.00;99.90
33955;DHT22;20233;50.804;7.126;2023-04-08T13:16:08;12.20;99.90
33955;DHT22;20233;50.804;7.126;2023-04-08T13:18:34;12.20;99.90
33955;DHT22;20233;50.804;7.126;2023-04-08T13:21:01;12.40;99.90
33955;DHT22;20233;50.804;7.126;2023-04-08T13:23:26;12.40;99.90
33955;DHT22;20233;50.804;7.126;2023-04-08T13:25:52;12.40;99.90
33955;DHT22;20233;50.804;7.126;2023-04-08T13:28:17;12.20;99.90
33955;DHT22;20233;50.804;7.126;2023-04-08T13:30:43;12.30;99.90
33955;DHT22;20233;50.804;7.126;2023-04-08T13:33:08;12.20;99.90
33955;DHT22;20233;50.804;7.126;2023-04-08T13:35:34;12.20;99.90
33955;DHT22;20233;50.804;7.126;2023-04-08T13:38:01;12.60;99.90
33955;DHT22;20233;50.804;7.126;2023-04-08T13:40:27;12.80;99.90
33955;DHT22;20233;50.804;7.126;2023-04-08T13:42:53;12.70;99.90
33955;DHT22;20233;50.804;7.126;2023-04-08T13:45:18;12.50;99.90
33955;DHT22;20233;50.804;7.126;2023-04-08T13:47:44;12.70;99.90
33955;DHT22;20233;50.804;7.126;2023-04-08T13:50:10;12.50;99.90
33955;DHT22;20233;50.804;7.126;2023-04-08T13:52:36;12.70;99.90
33955;DHT22;20233;50.804;7.126;2023-04-08T13:55:02;12.70;99.90
33955;DHT22;20233;50.804;7.126;2023-04-08T13:57:27;12.30;99.90
33955;DHT22;20233;50.804;7.126;2023-04-08T13:59:53;12.10;99.90
33955;DHT22;20233;50.804;7.126;2023-04-08T14:02:18;12.20;99.90
33955;DHT22;20233;50.804;7.126;2023-04-08T14:04:44;12.30;99.90
33955;DHT22;20233;50.804;7.126;2023-04-08T14:07:11;12.30;99.90
33955;DHT22;20233;50.804;7.126;2023-04-08T14:09:37;12.30;99.90
33955;DHT22;20233;50.804;7.126;2023-04-08T14:12:02;12.20;99.90
33955;DHT22;20233;50.804;7.126;2023-04-08T14:14:28;12.20;99.90
33955;DHT22;20233;50.804;7.126;2023-04-08T14:16:53;12.30;99.90
33955;DHT22;20233;50.804;7.126;2023-04-08T14:19:19;12.20;99.90
33955;DHT22;20233;50.804;7.126;2023-04-08T14:21:45;12.30;99.90
33955;DHT22;20233;50.804;7.126;2023-04-08T14:24:10;12.40;99.90
33955;DHT22;20233;50.804;7.126;2023-04-08T14:26:36;12.40;99.90
33955;DHT22;20233;50.804;7.126;2023-04-08T14:29:03;12.40;99.90
33955;DHT22;20233;50.804;7.126;2023-04-08T14:31:29;12.70;99.90
33955;DHT22;20233;50.804;7.126;2023-04-08T14:33:55;12.90;99.90
33955;DHT22;20233;50.804;7.126;2023-04-08T14:36:21;12.80;99.90
33955;DHT22;20233;50.804;7.126;2023-04-08T14:38:48;12.70;99.90
33955;DHT22;20233;50.804;7.126;2023-04-08T14:41:14;12.70;99.90
33955;DHT22;20233;50.804;7.126;2023-04-08T14:43:40;12.60;99.90
33955;DHT22;20233;50.804;7.126;2023-04-08T14:46:06;12.60;99.90
33955;DHT22;20233;50.804;7.126;2023-04-08T14:48:31;12.50;99.90
33955;DHT22;20233;50.804;7.126;2023-04-08T14:50:57;12.60;99.90
33955;DHT22;20233;50.804;7.126;2023-04-08T14:53:24;12.60;99.90
33955;DHT22;20233;50.804;7.126;2023-04-08T14:55:50;12.60;99.90
33955;DHT22;20233;50.804;7.126;2023-04-08T14:58:15;12.80;99.90
33955;DHT22;20233;50.804;7.126;2023-04-08T15:00:41;13.00;99.90
33955;DHT22;20233;50.804;7.126;2023-04-08T15:03:09;12.90;99.90
33955;DHT22;20233;50.804;7.126;2023-04-08T15:05:37;12.90;99.90
33955;DHT22;20233;50.804;7.126;2023-04-08T15:08:03;12.70;99.90
33955;DHT22;20233;50.804;7.126;2023-04-08T15:10:29;13.10;99.90
33955;DHT22;20233;50.804;7.126;2023-04-08T15:12:56;13.40;99.90
33955;DHT22;20233;50.804;7.126;2023-04-08T15:15:22;13.60;99.90
33955;DHT22;20233;50.804;7.126;2023-04-08T15:17:48;13.50;99.90
33955;DHT22;20233;50.804;7.126;2023-04-08T15:20:13;13.80;99.90
33955;DHT22;20233;50.804;7.126;2023-04-08T15:22:39;13.80;99.90
33955;DHT22;20233;50.804;7.126;2023-04-08T15:25:05;14.20;99.90
33955;DHT22;20233;50.804;7.126;2023-04-08T15:27:32;14.10;99.90
33955;DHT22;20233;50.804;7.126;2023-04-08T15:29:59;14.30;99.90
33955;DHT22;20233;50.804;7.126;2023-04-08T15:32:25;14.60;99.90
33955;DHT22;20233;50.804;7.126;2023-04-08T15:34:51;14.70;99.90
33955;DHT22;20233;50.804;7.126;2023-04-08T15:37:18;14.70;99.90
33955;DHT22;20233;50.804;7.126;2023-04-08T15:39:43;13.80;99.90
33955;DHT22;20233;50.804;7.126;2023-04-08T15:42:09;13.60;99.90
33955;DHT22;20233;50.804;7.126;2023-04-08T15:44:35;14.00;99.90
33955;DHT22;20233;50.804;7.126;2023-04-08T15:47:01;14.10;99.90
33955;DHT22;20233;50.804;7.126;2023-04-08T15:49:27;13.50;99.90
33955;DHT22;20233;50.804;7.126;2023-04-08T15:51:52;11.90;99.90
33955;DHT22;20233;50.804;7.126;2023-04-08T15:54:18;11.70;99.90
33955;DHT22;20233;50.804;7.126;2023-04-08T15:56:44;10.70;99.90
33955;DHT22;20233;50.804;7.126;2023-04-08T16:01:40;11.30;99.90
33955;DHT22;20233;50.804;7.126;2023-04-08T16:04:06;11.30;99.90